North Marshfield, Massachusetts
Current Conditions -  °F | °C
As of 8:55 PM on Saturday 22 Nov 2014 (Local Time) from KGHG Reporting Station
Few Clouds Few Clouds  
Wind Chill: 35°   Ceiling: Unl
Heat Index: 43°   Visibility: 10mi
Dew Point: 28°   Wind: 15mph
Humidity: 57%   Direction: 240°WSW
Pressure: 30.1"   Gusts: 24mph
Location:  42.14°N, 70.77°W
Report Text: KGHG 230155Z AUTO 24013G21KT 360V010 10SM FEW110 06/M02 A3010 RMK AO2
Loading
Personal Weather Stations






























Interactive Weather Map New forecast layout! Learn more

10-Day Weather Forecast

Advertisements
Track Severe Weather on mobile